Carnes, Mississippi
Current Conditions -  °F | °C
As of 2:53 PM on Saturday 20 Dec 2014 (Local Time) from KHBG Reporting Station
Overcast Overcast  
Wind Chill: 53°   Ceiling: 1600
Heat Index: 53°   Visibility: 10mi
Dew Point: 46°   Wind: 8mph
Humidity: 77%   Direction: 30°NNE
Pressure: 30.14"   Gusts: NA
Location:  31.0601°N, 89.4815°W
Report Text: KHBG 202053Z AUTO 03007KT 10SM OVC016 12/08 A3014 RMK AO2 SLP207 T01170078 56005
Loading
Personal Weather Stations






























Interactive Weather Map New forecast layout! Learn more

10-Day Weather Forecast

Advertisements
Track Severe Weather on mobile